createdAt,value
2018-03-03T00:02:38.181Z,0
2018-03-03T00:12:38.794Z,0
2018-03-03T00:22:38.142Z,0
2018-03-03T00:32:38.202Z,0
2018-03-03T00:42:38.134Z,0
2018-03-03T00:52:38.235Z,0
2018-03-03T01:02:38.192Z,0
2018-03-03T01:12:38.126Z,0
2018-03-03T01:22:38.202Z,0
2018-03-03T01:32:38.242Z,0
2018-03-03T01:42:38.243Z,0
2018-03-03T01:52:38.180Z,0
2018-03-03T02:02:38.278Z,0
2018-03-03T02:12:38.238Z,0
2018-03-03T02:22:38.271Z,0
2018-03-03T02:32:38.236Z,0
2018-03-03T02:42:38.180Z,0
2018-03-03T02:52:38.293Z,0
2018-03-03T03:02:38.215Z,0
2018-03-03T03:12:38.295Z,0
2018-03-03T03:22:38.219Z,0
2018-03-03T03:32:38.303Z,0
2018-03-03T03:42:38.278Z,0
2018-03-03T03:52:38.313Z,0
2018-03-03T04:02:38.287Z,0
2018-03-03T04:12:38.294Z,0
2018-03-03T04:22:38.334Z,0
2018-03-03T04:32:38.332Z,0
2018-03-03T04:42:38.336Z,0
2018-03-03T04:52:38.298Z,0
2018-03-03T05:02:38.361Z,0
2018-03-03T05:12:38.321Z,0
2018-03-03T05:22:38.387Z,0
2018-03-03T05:32:38.418Z,0
2018-03-03T05:42:38.358Z,4
2018-03-03T05:52:38.354Z,24
2018-03-03T06:02:38.274Z,88
2018-03-03T06:12:38.364Z,260
2018-03-03T06:22:38.368Z,524
2018-03-03T06:32:38.419Z,844
2018-03-03T06:42:38.380Z,1216
2018-03-03T06:52:38.324Z,1752
2018-03-03T07:02:38.436Z,2476
2018-03-03T07:12:38.518Z,2452
2018-03-03T07:22:38.419Z,3580
2018-03-03T07:32:38.341Z,4820
2018-03-03T07:42:38.440Z,5000
2018-03-03T07:52:38.435Z,5908
2018-03-03T08:02:38.521Z,7932
2018-03-03T08:12:38.435Z,7748
2018-03-03T08:22:38.508Z,7208
2018-03-03T08:32:38.475Z,6740
2018-03-03T08:42:38.518Z,6228
2018-03-03T08:52:38.490Z,7100
2018-03-03T09:02:38.464Z,6924
2018-03-03T09:12:38.498Z,7120
2018-03-03T09:22:38.463Z,7140
2018-03-03T09:32:38.499Z,7012
2018-03-03T09:42:38.461Z,7100
2018-03-03T09:52:38.506Z,6988
2018-03-03T10:02:38.656Z,7296
2018-03-03T10:12:38.574Z,7056
2018-03-03T10:22:38.539Z,7424
2018-03-03T10:32:38.576Z,6676
2018-03-03T10:42:38.558Z,11860
2018-03-03T10:52:38.598Z,12212
2018-03-03T11:02:39.252Z,8912
2018-03-03T11:12:38.643Z,9432
2018-03-03T11:22:42.124Z,8592
2018-03-03T11:32:38.560Z,8164
2018-03-03T11:42:38.596Z,8976
2018-03-03T11:52:38.498Z,9968
2018-03-03T12:02:38.614Z,10084
2018-03-03T12:12:38.573Z,8540
2018-03-03T12:22:38.765Z,8520
2018-03-03T12:32:38.591Z,10224
2018-03-03T12:42:38.650Z,9288
2018-03-03T12:52:38.610Z,8440
2018-03-03T13:02:38.686Z,7192
2018-03-03T13:12:38.911Z,6136
2018-03-03T13:22:38.724Z,6808
2018-03-03T13:32:38.651Z,5516
2018-03-03T13:42:38.725Z,5392
2018-03-03T13:52:38.706Z,5044
2018-03-03T14:02:38.617Z,5076
2018-03-03T14:12:38.683Z,4104
2018-03-03T14:22:38.798Z,3208
2018-03-03T14:32:38.809Z,2624
2018-03-03T14:42:38.750Z,2860
2018-03-03T14:52:38.705Z,2668
2018-03-03T15:02:38.765Z,3260
2018-03-03T15:12:38.650Z,2516
2018-03-03T15:22:38.730Z,2476
2018-03-03T15:32:38.682Z,2200
2018-03-03T15:42:38.798Z,2264
2018-03-03T15:52:38.765Z,2004
2018-03-03T16:02:38.810Z,2004
2018-03-03T16:12:38.949Z,1096
2018-03-03T16:22:38.794Z,664
2018-03-03T16:32:38.825Z,412
2018-03-03T16:42:38.823Z,264
2018-03-03T16:52:38.807Z,144
2018-03-03T17:02:38.803Z,96
2018-03-03T17:12:38.868Z,64
2018-03-03T17:22:38.905Z,24
2018-03-03T17:32:38.843Z,8
2018-03-03T17:42:38.889Z,4
2018-03-03T17:52:38.859Z,4
2018-03-03T18:02:38.912Z,4
2018-03-03T18:12:38.830Z,4
2018-03-03T18:22:38.788Z,4
2018-03-03T18:32:38.928Z,4
2018-03-03T18:42:38.784Z,4
2018-03-03T18:52:38.909Z,4
2018-03-03T19:02:38.883Z,4
2018-03-03T19:12:38.959Z,4
2018-03-03T19:22:38.946Z,4
2018-03-03T19:32:39.011Z,4
2018-03-03T19:42:39.267Z,4
2018-03-03T19:52:39.095Z,4
2018-03-03T20:02:39.202Z,4
2018-03-03T20:12:39.027Z,4
2018-03-03T20:22:39.105Z,4
2018-03-03T20:32:38.976Z,4
2018-03-03T20:42:39.011Z,4
2018-03-03T20:52:39.299Z,4
2018-03-03T21:02:39.060Z,4
2018-03-03T21:12:38.988Z,4
2018-03-03T21:22:39.146Z,4
2018-03-03T21:32:39.041Z,4
2018-03-03T21:42:39.056Z,4
2018-03-03T21:52:39.378Z,4
2018-03-03T22:02:39.172Z,4
2018-03-03T22:12:39.113Z,4
2018-03-03T22:22:39.124Z,4
2018-03-03T22:32:39.127Z,4
2018-03-03T22:42:39.083Z,4
2018-03-03T22:52:39.037Z,4
2018-03-03T23:02:39.152Z,4
2018-03-03T23:12:39.112Z,4
2018-03-03T23:22:39.165Z,4
2018-03-03T23:32:39.083Z,4
2018-03-03T23:42:39.044Z,4
2018-03-03T23:52:39.081Z,4
